createdAt,value
2019-05-02T00:01:11.467Z,25.93
2019-05-02T00:03:41.259Z,25.90
2019-05-02T00:06:12.057Z,28.57
2019-05-02T00:08:44.355Z,23.50
2019-05-02T00:11:13.904Z,26.90
2019-05-02T00:13:43.395Z,27.73
2019-05-02T00:16:18.541Z,31.97
2019-05-02T00:18:47.733Z,26.23
2019-05-02T00:21:17.231Z,26.37
2019-05-02T00:23:46.635Z,28.63
2019-05-02T00:26:15.926Z,26.57
2019-05-02T00:28:48.087Z,27.97
2019-05-02T00:31:20.022Z,28.70
2019-05-02T00:33:48.722Z,26.90
2019-05-02T00:36:18.087Z,32.40
2019-05-02T00:38:49.817Z,29.50
2019-05-02T00:41:19.273Z,30.30
2019-05-02T00:43:48.690Z,26.53
2019-05-02T00:46:17.987Z,30.40
2019-05-02T00:48:59.655Z,34.13
2019-05-02T00:51:28.501Z,35.23
2019-05-02T00:53:57.707Z,33.60
2019-05-02T00:56:26.887Z,27.60
2019-05-02T00:58:56.166Z,32.23
2019-05-02T01:01:44.390Z,31.80
2019-05-02T01:04:27.434Z,27.93
2019-05-02T01:06:55.768Z,30.57
2019-05-02T01:09:25.094Z,31.13
2019-05-02T01:11:54.343Z,30.90
2019-05-02T01:14:27.295Z,29.90
2019-05-02T01:16:58.052Z,30.97
2019-05-02T01:19:27.416Z,30.83
2019-05-02T01:21:56.686Z,30.00
2019-05-02T01:24:25.938Z,31.93
2019-05-02T01:27:14.126Z,34.13
2019-05-02T01:29:48.630Z,25.47
2019-05-02T01:32:25.298Z,31.40
2019-05-02T01:35:09.999Z,32.07
2019-05-02T01:37:58.234Z,31.90
2019-05-02T01:40:27.581Z,32.37
2019-05-02T01:42:58.065Z,37.30
2019-05-02T01:45:27.406Z,32.67
2019-05-02T01:47:56.581Z,31.37
2019-05-02T01:50:28.849Z,38.37
2019-05-02T01:52:58.570Z,32.30
2019-05-02T01:55:27.831Z,36.57
2019-05-02T01:57:57.111Z,33.53
2019-05-02T02:00:29.791Z,34.13
2019-05-02T02:02:59.222Z,41.50
2019-05-02T02:05:32.271Z,33.77
2019-05-02T02:07:59.647Z,32.47
2019-05-02T02:10:29.108Z,35.63
2019-05-02T02:13:04.887Z,36.77
2019-05-02T02:15:30.271Z,34.63
2019-05-02T02:17:59.662Z,35.33
2019-05-02T02:20:31.999Z,36.37
2019-05-02T02:23:10.160Z,36.70
2019-05-02T02:25:45.444Z,31.30
2019-05-02T02:28:14.594Z,34.70
2019-05-02T02:30:44.460Z,32.57
2019-05-02T02:33:13.759Z,42.77
2019-05-02T02:35:49.526Z,44.00
2019-05-02T02:38:13.880Z,41.90
2019-05-02T02:40:43.086Z,36.67
2019-05-02T02:43:32.179Z,42.70
2019-05-02T02:45:57.690Z,42.50
2019-05-02T02:48:23.124Z,41.20
2019-05-02T02:50:52.407Z,41.20
2019-05-02T02:53:30.753Z,43.17
2019-05-02T02:56:03.938Z,41.30
2019-05-02T02:58:44.104Z,42.10
2019-05-02T03:01:03.917Z,45.77
2019-05-02T03:03:35.430Z,44.90
2019-05-02T03:06:07.606Z,43.73
2019-05-02T03:08:45.229Z,47.93
2019-05-02T03:11:08.490Z,47.37
2019-05-02T03:14:07.561Z,44.10
2019-05-02T03:16:33.972Z,47.83
2019-05-02T03:19:03.246Z,46.90
2019-05-02T03:21:32.625Z,52.33
2019-05-02T03:24:05.475Z,47.47
2019-05-02T03:26:33.608Z,51.20
2019-05-02T03:29:03.421Z,43.17
2019-05-02T03:31:32.703Z,42.80
2019-05-02T03:34:02.453Z,50.10
2019-05-02T03:36:36.442Z,51.97
2019-05-02T03:39:13.376Z,46.80
2019-05-02T03:41:33.723Z,54.33
2019-05-02T03:44:11.384Z,48.70
2019-05-02T03:46:34.068Z,47.13
2019-05-02T03:49:07.279Z,50.73
2019-05-02T03:51:34.412Z,47.67
2019-05-02T03:54:07.758Z,51.00
2019-05-02T03:56:34.670Z,43.63
2019-05-02T03:59:04.032Z,46.00
2019-05-02T04:01:34.665Z,51.20
2019-05-02T04:04:05.410Z,54.57
2019-05-02T04:06:34.624Z,53.57
2019-05-02T04:09:05.905Z,47.17
2019-05-02T04:11:40.794Z,50.20
2019-05-02T04:14:17.530Z,57.93
2019-05-02T04:16:41.177Z,48.20
2019-05-02T04:19:10.522Z,49.80
2019-05-02T04:21:39.837Z,59.73
2019-05-02T04:24:15.155Z,47.57
2019-05-02T04:26:52.129Z,51.03
2019-05-02T04:29:11.599Z,48.67
2019-05-02T04:31:40.833Z,44.50
2019-05-02T04:34:15.813Z,55.70
2019-05-02T04:36:41.157Z,54.93
2019-05-02T04:39:15.151Z,52.60
2019-05-02T04:41:42.503Z,55.27
2019-05-02T04:44:11.938Z,54.67
2019-05-02T04:46:41.285Z,55.30
2019-05-02T04:49:10.624Z,49.97
2019-05-02T04:51:39.790Z,54.87
2019-05-02T04:54:09.376Z,54.43
2019-05-02T04:56:39.712Z,70.57
2019-05-02T04:59:17.803Z,48.10
2019-05-02T05:01:49.066Z,48.47
2019-05-02T05:04:27.581Z,55.97
2019-05-02T05:07:00.911Z,54.17
2019-05-02T05:09:27.924Z,60.80
2019-05-02T05:11:59.038Z,49.07
2019-05-02T05:14:31.378Z,51.67
2019-05-02T05:16:59.258Z,50.47
2019-05-02T05:19:37.742Z,56.00
2019-05-02T05:22:11.986Z,55.37
2019-05-02T05:24:55.675Z,59.00
2019-05-02T05:27:27.675Z,50.27
2019-05-02T05:29:59.545Z,56.87
2019-05-02T05:32:28.259Z,51.33
2019-05-02T05:34:57.988Z,54.17
2019-05-02T05:37:29.459Z,52.67
2019-05-02T05:39:58.363Z,52.00
2019-05-02T05:42:30.199Z,49.43
2019-05-02T05:44:58.502Z,56.90
2019-05-02T05:47:27.755Z,50.90
2019-05-02T05:50:00.957Z,55.63
2019-05-02T05:52:27.949Z,51.83
2019-05-02T05:54:57.944Z,55.90
2019-05-02T05:57:27.974Z,55.03
2019-05-02T06:00:11.999Z,51.60
2019-05-02T06:02:50.886Z,53.77
2019-05-02T06:05:08.455Z,53.90
2019-05-02T06:07:41.864Z,53.47
2019-05-02T06:10:09.925Z,58.20
2019-05-02T06:12:39.385Z,50.10
2019-05-02T06:15:08.711Z,49.60
2019-05-02T06:17:38.071Z,58.23
2019-05-02T06:20:07.427Z,52.63
2019-05-02T06:22:36.737Z,55.87
2019-05-02T06:25:09.491Z,50.30
2019-05-02T06:27:39.053Z,54.43
2019-05-02T06:30:09.255Z,51.77
2019-05-02T06:32:38.696Z,54.00
2019-05-02T06:35:08.320Z,57.03
2019-05-02T06:37:40.656Z,54.80
2019-05-02T06:40:12.116Z,63.00
2019-05-02T06:42:41.524Z,56.20
2019-05-02T06:45:12.265Z,51.50
2019-05-02T06:47:43.618Z,57.13
2019-05-02T06:50:14.362Z,52.20
2019-05-02T06:52:43.657Z,56.40
2019-05-02T06:55:14.777Z,48.50
2019-05-02T06:57:44.183Z,51.37
2019-05-02T07:00:13.739Z,55.77
2019-05-02T07:02:43.140Z,50.50
2019-05-02T07:05:14.704Z,55.27
2019-05-02T07:07:44.038Z,59.13
2019-05-02T07:10:13.474Z,57.67
2019-05-02T07:12:46.208Z,51.53
2019-05-02T07:15:33.657Z,51.40
2019-05-02T07:18:05.484Z,55.00
2019-05-02T07:20:40.494Z,51.57
2019-05-02T07:23:10.630Z,50.00
2019-05-02T07:25:39.095Z,44.77
2019-05-02T07:28:09.446Z,54.50
2019-05-02T07:30:39.732Z,55.50
2019-05-02T07:33:09.019Z,61.03
2019-05-02T07:35:38.347Z,58.77
2019-05-02T07:38:07.562Z,60.37
2019-05-02T07:40:37.067Z,59.70
2019-05-02T07:43:06.531Z,63.80
2019-05-02T07:45:40.210Z,65.97
2019-05-02T07:48:12.525Z,66.20
2019-05-02T07:50:41.318Z,63.07
2019-05-02T07:53:14.150Z,56.13
2019-05-02T07:55:42.673Z,55.17
2019-05-02T07:58:12.255Z,59.20
2019-05-02T08:00:41.614Z,60.33
2019-05-02T08:03:10.932Z,60.47
2019-05-02T08:05:42.239Z,59.70
2019-05-02T08:08:12.859Z,62.93
2019-05-02T08:10:43.584Z,53.80
2019-05-02T08:13:17.550Z,52.57
2019-05-02T08:15:45.549Z,56.13
2019-05-02T08:18:14.738Z,55.17
2019-05-02T08:20:44.224Z,61.10
2019-05-02T08:23:13.685Z,58.63
2019-05-02T08:25:45.453Z,56.93
2019-05-02T08:28:19.326Z,59.87
2019-05-02T08:30:54.704Z,60.23
2019-05-02T08:33:24.089Z,59.83
2019-05-02T08:35:53.512Z,59.63
2019-05-02T08:38:22.843Z,54.10
2019-05-02T08:40:52.200Z,48.53
2019-05-02T08:43:21.425Z,56.10
2019-05-02T08:45:50.678Z,49.77
2019-05-02T08:48:22.612Z,54.23
2019-05-02T08:50:50.988Z,52.03
2019-05-02T08:53:22.089Z,54.67
2019-05-02T08:55:51.348Z,56.67
2019-05-02T08:58:20.666Z,50.57
2019-05-02T09:00:49.978Z,55.67
2019-05-02T09:03:19.208Z,53.30
2019-05-02T09:05:48.595Z,57.10
2019-05-02T09:08:17.792Z,57.90
2019-05-02T09:10:47.093Z,55.33
2019-05-02T09:13:23.538Z,52.70
2019-05-02T09:15:51.333Z,53.97
2019-05-02T09:18:18.404Z,50.67
2019-05-02T09:20:54.913Z,59.37
2019-05-02T09:23:18.738Z,52.63
2019-05-02T09:25:47.898Z,55.17
2019-05-02T09:28:21.459Z,59.53
2019-05-02T09:30:48.276Z,47.70
2019-05-02T09:33:17.586Z,53.50
2019-05-02T09:35:46.788Z,53.87
2019-05-02T09:38:16.456Z,60.50
2019-05-02T09:40:47.312Z,50.43
2019-05-02T09:43:16.829Z,51.80
2019-05-02T09:45:46.023Z,53.37
2019-05-02T09:48:17.131Z,51.37
2019-05-02T09:50:46.180Z,53.70
2019-05-02T09:53:20.626Z,48.90
2019-05-02T09:55:50.191Z,50.57
2019-05-02T09:58:21.318Z,50.10
2019-05-02T10:01:13.507Z,54.37
2019-05-02T10:03:42.980Z,49.50
2019-05-02T10:06:13.963Z,50.50
2019-05-02T10:08:46.306Z,49.43
2019-05-02T10:11:17.041Z,44.17
2019-05-02T10:13:45.259Z,46.30
2019-05-02T10:16:18.073Z,43.20
2019-05-02T10:18:45.494Z,45.57
2019-05-02T10:21:17.165Z,49.43
2019-05-02T10:23:45.912Z,45.83
2019-05-02T10:26:19.989Z,52.87
2019-05-02T10:28:50.565Z,47.20
2019-05-02T10:31:17.389Z,41.77
2019-05-02T10:33:46.777Z,48.20
2019-05-02T10:36:19.672Z,42.90
2019-05-02T10:38:48.933Z,42.40
2019-05-02T10:41:17.993Z,42.27
2019-05-02T10:43:54.003Z,37.90
2019-05-02T10:46:27.737Z,39.47
2019-05-02T10:49:02.884Z,37.77
2019-05-02T10:51:35.542Z,39.07
2019-05-02T10:54:07.875Z,42.27
2019-05-02T10:56:37.396Z,40.90
2019-05-02T10:59:06.925Z,45.60
2019-05-02T11:01:59.174Z,39.43
2019-05-02T11:04:29.386Z,39.00
2019-05-02T11:06:58.896Z,40.87
2019-05-02T11:09:28.134Z,40.37
2019-05-02T11:11:57.806Z,39.80
2019-05-02T11:14:42.214Z,38.13
2019-05-02T11:17:22.671Z,36.20
2019-05-02T11:20:04.984Z,43.10
2019-05-02T11:22:34.232Z,38.13
2019-05-02T11:25:03.807Z,42.93
2019-05-02T11:27:33.036Z,36.17
2019-05-02T11:30:02.835Z,35.70
2019-05-02T11:32:32.774Z,37.60
2019-05-02T11:35:02.966Z,38.63
2019-05-02T11:37:32.820Z,39.60
2019-05-02T11:40:06.077Z,36.63
2019-05-02T11:42:33.395Z,34.50
2019-05-02T11:45:02.839Z,35.40
2019-05-02T11:47:32.861Z,35.63
2019-05-02T11:50:02.578Z,32.63
2019-05-02T11:52:36.200Z,34.33
2019-05-02T11:55:03.088Z,32.03
2019-05-02T11:57:33.182Z,34.60
2019-05-02T12:00:05.198Z,32.53
2019-05-02T12:02:58.059Z,30.50
2019-05-02T12:05:35.555Z,34.40
2019-05-02T12:08:07.938Z,28.93
2019-05-02T12:10:36.696Z,28.10
2019-05-02T12:13:06.623Z,28.00
2019-05-02T12:15:36.519Z,25.60
2019-05-02T12:18:06.025Z,40.63
2019-05-02T12:20:36.730Z,33.13
2019-05-02T12:23:09.003Z,33.43
2019-05-02T12:25:37.414Z,29.63
2019-05-02T12:28:06.974Z,28.00
2019-05-02T12:30:37.971Z,30.60
2019-05-02T12:33:07.351Z,30.10
2019-05-02T12:35:36.673Z,29.43
2019-05-02T12:38:06.129Z,32.90
2019-05-02T12:40:35.579Z,27.17
2019-05-02T12:43:04.847Z,30.00
2019-05-02T12:45:34.211Z,28.73
2019-05-02T12:48:17.783Z,28.43
2019-05-02T12:50:48.074Z,28.17
2019-05-02T12:53:17.275Z,26.87
2019-05-02T12:55:46.695Z,28.70
2019-05-02T12:58:16.115Z,22.50
2019-05-02T13:00:46.924Z,25.57
2019-05-02T13:03:38.245Z,25.87
2019-05-02T13:06:07.528Z,22.43
2019-05-02T13:08:48.559Z,24.53
2019-05-02T13:11:36.950Z,24.00
2019-05-02T13:14:16.773Z,25.93
2019-05-02T13:16:38.083Z,29.70
2019-05-02T13:19:07.408Z,25.60
2019-05-02T13:21:45.225Z,24.03
2019-05-02T13:24:29.946Z,25.37
2019-05-02T13:27:00.932Z,25.03
2019-05-02T13:29:32.149Z,26.00
2019-05-02T13:32:23.350Z,28.10
2019-05-02T13:34:57.636Z,24.50
2019-05-02T13:37:27.083Z,29.07
2019-05-02T13:40:12.024Z,24.57
2019-05-02T13:42:43.996Z,24.33
2019-05-02T13:45:37.254Z,26.40
2019-05-02T13:48:06.691Z,30.47
2019-05-02T13:50:36.011Z,24.83
2019-05-02T13:53:05.506Z,28.47
2019-05-02T13:55:39.526Z,26.97
2019-05-02T13:58:08.842Z,23.50
2019-05-02T14:00:44.270Z,24.20
2019-05-02T14:03:14.107Z,25.07
2019-05-02T14:05:48.940Z,22.27
2019-05-02T14:08:32.378Z,24.73
2019-05-02T14:11:17.529Z,26.30
2019-05-02T14:13:47.051Z,21.77
2019-05-02T14:16:16.405Z,22.00
2019-05-02T14:18:45.726Z,20.97
2019-05-02T14:21:17.677Z,19.20
2019-05-02T14:23:47.003Z,20.63
2019-05-02T14:26:27.536Z,21.00
2019-05-02T14:28:47.315Z,19.17
2019-05-02T14:31:16.471Z,19.40
2019-05-02T14:34:06.707Z,16.37
2019-05-02T14:36:36.019Z,16.23
2019-05-02T14:39:09.620Z,17.43
2019-05-02T14:41:41.935Z,16.57
2019-05-02T14:44:12.007Z,16.60
2019-05-02T14:46:46.999Z,16.53
2019-05-02T14:49:23.900Z,13.90
2019-05-02T14:51:48.503Z,15.10
2019-05-02T14:54:17.973Z,17.90
2019-05-02T14:56:59.262Z,15.70
2019-05-02T14:59:32.299Z,17.67
2019-05-02T15:02:07.521Z,17.80
2019-05-02T15:04:38.205Z,16.93
2019-05-02T15:07:33.696Z,17.73
2019-05-02T15:10:06.591Z,16.63
2019-05-02T15:12:37.294Z,17.97
2019-05-02T15:15:08.356Z,16.87
2019-05-02T15:17:38.018Z,23.30
2019-05-02T15:20:13.047Z,18.67
2019-05-02T15:22:42.620Z,15.40
2019-05-02T15:25:17.842Z,17.20
2019-05-02T15:27:49.959Z,16.13
2019-05-02T15:30:20.896Z,18.70
2019-05-02T15:33:04.334Z,18.73
2019-05-02T15:35:43.648Z,19.60
2019-05-02T15:38:24.248Z,20.93
2019-05-02T15:40:53.741Z,21.20
2019-05-02T15:43:23.612Z,18.77
2019-05-02T15:45:52.980Z,17.60
2019-05-02T15:48:27.753Z,16.63
2019-05-02T15:51:00.014Z,21.67
2019-05-02T15:53:39.146Z,20.40
2019-05-02T15:56:18.702Z,20.60
2019-05-02T15:58:42.474Z,17.37
2019-05-02T16:01:28.630Z,18.13
2019-05-02T16:03:58.561Z,17.00
2019-05-02T16:06:31.553Z,17.20
2019-05-02T16:08:58.945Z,18.33
2019-05-02T16:11:32.235Z,17.00
2019-05-02T16:14:02.184Z,17.03
2019-05-02T16:16:32.076Z,18.57
2019-05-02T16:19:02.903Z,18.20
2019-05-02T16:21:52.015Z,18.10
2019-05-02T16:24:24.897Z,19.10
2019-05-02T16:26:56.840Z,20.20
2019-05-02T16:29:31.714Z,18.10
2019-05-02T16:32:13.291Z,19.13
2019-05-02T16:35:15.596Z,24.93
2019-05-02T16:37:39.591Z,17.90
2019-05-02T16:40:12.056Z,16.87
2019-05-02T16:42:41.920Z,14.43
2019-05-02T16:45:12.027Z,15.83
2019-05-02T16:47:42.635Z,17.60
2019-05-02T16:50:12.657Z,19.03
2019-05-02T16:52:50.010Z,18.50
2019-05-02T16:55:20.722Z,18.20
2019-05-02T16:57:51.899Z,17.47
2019-05-02T17:00:23.461Z,17.00
2019-05-02T17:02:53.869Z,18.37
2019-05-02T17:05:32.522Z,19.53
2019-05-02T17:08:23.499Z,17.73
2019-05-02T17:10:57.169Z,19.43
2019-05-02T17:13:32.156Z,18.57
2019-05-02T17:15:59.082Z,19.20
2019-05-02T17:18:29.471Z,17.57
2019-05-02T17:21:01.692Z,17.20
2019-05-02T17:23:32.849Z,19.27
2019-05-02T17:26:04.253Z,23.20
2019-05-02T17:28:33.512Z,19.07
2019-05-02T17:31:03.440Z,18.50
2019-05-02T17:33:34.126Z,19.50
2019-05-02T17:36:05.542Z,19.13
2019-05-02T17:38:36.980Z,18.30
2019-05-02T17:41:07.886Z,21.30
2019-05-02T17:43:41.903Z,19.90
2019-05-02T17:46:12.849Z,18.50
2019-05-02T17:48:40.078Z,16.90
2019-05-02T17:51:37.754Z,19.53
2019-05-02T17:54:08.697Z,19.20
2019-05-02T17:56:42.362Z,17.97
2019-05-02T17:59:11.857Z,18.50
2019-05-02T18:01:41.899Z,17.07
2019-05-02T18:04:12.756Z,20.60
2019-05-02T18:06:42.299Z,28.40
2019-05-02T18:09:12.321Z,18.60
2019-05-02T18:11:43.878Z,18.63
2019-05-02T18:14:19.671Z,20.23
2019-05-02T18:16:47.099Z,19.47
2019-05-02T18:19:24.690Z,21.53
2019-05-02T18:21:58.289Z,17.97
2019-05-02T18:24:25.686Z,18.47
2019-05-02T18:26:54.903Z,17.87
2019-05-02T18:29:24.311Z,20.63
2019-05-02T18:31:55.711Z,18.90
2019-05-02T18:34:25.482Z,20.53
2019-05-02T18:36:57.313Z,18.73
2019-05-02T18:39:26.157Z,18.07
2019-05-02T18:41:55.471Z,17.70
2019-05-02T18:44:24.753Z,19.03
2019-05-02T18:46:57.703Z,16.47
2019-05-02T18:49:29.780Z,19.83
2019-05-02T18:52:01.618Z,22.17
2019-05-02T18:54:38.642Z,19.67
2019-05-02T18:57:08.179Z,20.90
2019-05-02T18:59:37.696Z,20.40
2019-05-02T19:02:08.432Z,21.00
2019-05-02T19:04:43.531Z,20.37
2019-05-02T19:07:15.823Z,17.10
2019-05-02T19:09:51.405Z,19.07
2019-05-02T19:12:25.391Z,18.80
2019-05-02T19:14:57.334Z,17.40
2019-05-02T19:17:38.493Z,24.33
2019-05-02T19:20:10.949Z,18.13
2019-05-02T19:22:48.131Z,19.93
2019-05-02T19:25:08.771Z,20.63
2019-05-02T19:27:57.609Z,19.40
2019-05-02T19:30:32.488Z,18.97
2019-05-02T19:33:03.625Z,20.13
2019-05-02T19:35:37.651Z,18.90
2019-05-02T19:38:06.555Z,20.77
2019-05-02T19:40:36.446Z,22.60
2019-05-02T19:43:07.622Z,20.70
2019-05-02T19:45:37.388Z,23.40
2019-05-02T19:48:06.796Z,23.00
2019-05-02T19:50:43.713Z,27.43
2019-05-02T19:53:14.822Z,24.73
2019-05-02T19:55:42.712Z,28.97
2019-05-02T19:58:11.551Z,27.77
2019-05-02T20:00:42.345Z,24.83
2019-05-02T20:03:21.529Z,26.40
2019-05-02T20:05:48.428Z,23.20
2019-05-02T20:08:21.329Z,22.80
2019-05-02T20:10:49.343Z,24.30
2019-05-02T20:13:20.295Z,23.80
2019-05-02T20:15:57.137Z,27.67
2019-05-02T20:18:28.225Z,25.20
2019-05-02T20:21:23.388Z,24.07
2019-05-02T20:23:48.380Z,24.00
2019-05-02T20:26:17.699Z,26.37
2019-05-02T20:28:47.017Z,22.07
2019-05-02T20:31:59.267Z,27.60
2019-05-02T20:34:28.886Z,20.20
2019-05-02T20:36:58.240Z,21.60
2019-05-02T20:39:27.461Z,20.23
2019-05-02T20:41:57.670Z,25.17
2019-05-02T20:44:27.083Z,21.93
2019-05-02T20:46:56.533Z,23.80
2019-05-02T20:49:25.925Z,25.90
2019-05-02T20:51:55.276Z,24.13
2019-05-02T20:54:24.923Z,26.10
2019-05-02T20:56:54.329Z,27.10
2019-05-02T20:59:23.710Z,21.57
2019-05-02T21:01:53.084Z,21.93
2019-05-02T21:04:22.809Z,18.80
2019-05-02T21:06:59.264Z,20.97
2019-05-02T21:09:42.172Z,20.87
2019-05-02T21:12:12.599Z,23.00
2019-05-02T21:14:42.153Z,18.77
2019-05-02T21:17:12.804Z,15.90
2019-05-02T21:19:45.102Z,18.77
2019-05-02T21:22:19.273Z,20.87
2019-05-02T21:24:48.624Z,21.50
2019-05-02T21:27:18.088Z,16.93
2019-05-02T21:29:47.465Z,18.67
2019-05-02T21:32:16.831Z,18.70
2019-05-02T21:34:47.175Z,23.20
2019-05-02T21:37:17.897Z,18.03
2019-05-02T21:39:47.268Z,17.87
2019-05-02T21:42:16.624Z,18.40
2019-05-02T21:44:46.072Z,22.37
2019-05-02T21:47:16.229Z,20.50
2019-05-02T21:49:54.051Z,19.47
2019-05-02T21:52:38.158Z,22.73
2019-05-02T21:55:38.859Z,21.10
2019-05-02T21:58:08.297Z,20.23
2019-05-02T22:00:58.477Z,23.87
2019-05-02T22:03:27.851Z,20.80
2019-05-02T22:05:57.194Z,19.53
2019-05-02T22:08:26.480Z,20.00
2019-05-02T22:10:55.861Z,20.63
2019-05-02T22:13:27.405Z,22.60
2019-05-02T22:15:56.775Z,22.30
2019-05-02T22:18:26.091Z,22.50
2019-05-02T22:20:58.173Z,19.63
2019-05-02T22:23:27.555Z,23.93
2019-05-02T22:25:59.293Z,18.70
2019-05-02T22:28:28.631Z,23.23
2019-05-02T22:30:57.999Z,18.80
2019-05-02T22:33:27.295Z,20.40
2019-05-02T22:35:56.619Z,18.60
2019-05-02T22:38:42.578Z,19.93
2019-05-02T22:41:12.542Z,17.77
2019-05-02T22:43:42.235Z,16.70
2019-05-02T22:46:37.438Z,20.20
2019-05-02T22:49:06.862Z,15.80
2019-05-02T22:51:37.669Z,18.27
2019-05-02T22:54:20.726Z,18.63
2019-05-02T22:56:39.438Z,18.73
2019-05-02T22:59:08.877Z,19.90
2019-05-02T23:01:38.327Z,17.13
2019-05-02T23:04:07.700Z,20.30
2019-05-02T23:06:37.122Z,19.47
2019-05-02T23:09:07.855Z,18.37
2019-05-02T23:11:38.448Z,18.10
2019-05-02T23:14:07.830Z,20.57
2019-05-02T23:16:37.124Z,26.67
2019-05-02T23:19:06.556Z,17.70
2019-05-02T23:21:35.948Z,25.33
2019-05-02T23:24:09.628Z,17.83
2019-05-02T23:26:56.619Z,19.60
2019-05-02T23:29:26.110Z,18.40
2019-05-02T23:31:58.429Z,23.80
2019-05-02T23:34:27.956Z,14.93
2019-05-02T23:36:57.229Z,17.43
2019-05-02T23:39:26.588Z,17.47
2019-05-02T23:41:55.895Z,21.00
2019-05-02T23:44:25.187Z,18.70
2019-05-02T23:46:55.410Z,15.70
2019-05-02T23:49:24.792Z,18.63
2019-05-02T23:51:54.117Z,22.13
2019-05-02T23:54:23.449Z,18.80
2019-05-02T23:56:52.774Z,22.33
2019-05-02T23:59:22.413Z,20.70
